地図

経路データ

SID SEASON NUMBER BASIN SUBBASIN NAME ISO_TIME NATURE LAT LON WMO_WIND WMO_PRES WMO_AGENCY TRACK_TYPE DIST2LAND LANDFALL IFLAG USA_AGENCY USA_ATCF_ID USA_LAT USA_LON USA_RECORD USA_STATUS USA_WIND USA_PRES USA_SSHS USA_R34_NE USA_R34_SE USA_R34_SW USA_R34_NW USA_R50_NE USA_R50_SE USA_R50_SW USA_R50_NW USA_R64_NE USA_R64_SE USA_R64_SW USA_R64_NW USA_POCI USA_ROCI USA_RMW USA_EYE TOKYO_LAT TOKYO_LON TOKYO_GRADE TOKYO_WIND TOKYO_PRES TOKYO_R50_DIR TOKYO_R50_LONG TOKYO_R50_SHORT TOKYO_R30_DIR TOKYO_R30_LONG TOKYO_R30_SHORT TOKYO_LAND CMA_LAT CMA_LON CMA_CAT CMA_WIND CMA_PRES HKO_LAT HKO_LON HKO_CAT HKO_WIND HKO_PRES NEWDELHI_LAT NEWDELHI_LON NEWDELHI_GRADE NEWDELHI_WIND NEWDELHI_PRES NEWDELHI_CI NEWDELHI_DP NEWDELHI_POCI REUNION_LAT REUNION_LON REUNION_TYPE REUNION_WIND REUNION_PRES REUNION_TNUM REUNION_CI REUNION_RMW REUNION_R34_NE REUNION_R34_SE REUNION_R34_SW REUNION_R34_NW REUNION_R50_NE REUNION_R50_SE REUNION_R50_SW REUNION_R50_NW REUNION_R64_NE REUNION_R64_SE REUNION_R64_SW REUNION_R64_NW BOM_LAT BOM_LON BOM_TYPE BOM_WIND BOM_PRES BOM_TNUM BOM_CI BOM_RMW BOM_R34_NE BOM_R34_SE BOM_R34_SW BOM_R34_NW BOM_R50_NE BOM_R50_SE BOM_R50_SW BOM_R50_NW BOM_R64_NE BOM_R64_SE BOM_R64_SW BOM_R64_NW BOM_ROCI BOM_POCI BOM_EYE BOM_POS_METHOD BOM_PRES_METHOD NADI_LAT NADI_LON NADI_CAT NADI_WIND NADI_PRES WELLINGTON_LAT WELLINGTON_LON WELLINGTON_WIND WELLINGTON_PRES DS824_LAT DS824_LON DS824_STAGE DS824_WIND DS824_PRES TD9636_LAT TD9636_LON TD9636_STAGE TD9636_WIND TD9636_PRES TD9635_LAT TD9635_LON TD9635_WIND TD9635_PRES TD9635_ROCI NEUMANN_LAT NEUMANN_LON NEUMANN_CLASS NEUMANN_WIND NEUMANN_PRES MLC_LAT MLC_LON MLC_CLASS MLC_WIND MLC_PRES USA_GUST BOM_GUST BOM_GUST_PER REUNION_GUST REUNION_GUST_PER USA_SEAHGT USA_SEARAD_NE USA_SEARAD_SE USA_SEARAD_SW USA_SEARAD_NW STORM_SPEED STORM_DIR
1988288N14115 1988 94 WP MM NOT_NAMED 1988-10-13 12:00:00 TS 13.8000 115.000 main 557 557 __O___________ -1 13.8000 115.000 1 23 1004 6 261
1988288N14115 1988 94 WP MM NOT_NAMED 1988-10-13 15:00:00 TS 13.7525 114.675 main 571 527 __P___________ -1 13.7525 114.675 1 23 1004 7 262
1988288N14115 1988 94 WP MM NOT_NAMED 1988-10-13 18:00:00 TS 13.7000 114.300 main 527 482 __O___________ -1 13.7000 114.300 1 23 1004 8 261
1988288N14115 1988 94 WP MM NOT_NAMED 1988-10-13 21:00:00 TS 13.6301 113.862 main 482 438 __P___________ -1 13.6301 113.862 1 23 1004 8 256
1988288N14115 1988 94 WP MM NOT_NAMED 1988-10-14 00:00:00 TS 13.5000 113.500 main 438 424 __O___________ -1 13.5000 113.500 1 23 1004 6 234
1988288N14115 1988 94 WP MM NOT_NAMED 1988-10-14 03:00:00 TS 13.2724 113.363 main 424 412 __P___________ -1 13.2724 113.363 1 23 1004 5 201
1988288N14115 1988 94 WP MM NOT_NAMED 1988-10-14 06:00:00 TS 13.0000 113.300 main 412 401 __O___________ -1 13.0000 113.300 1 23 1004 6 197
1988288N14115 1988 94 WP MM NOT_NAMED 1988-10-14 09:00:00 TS 12.6974 113.187 main 401 380 __P___________ -1 12.6974 113.187 1 23 1004 6 210
1988288N14115 1988 94 WP MM NOT_NAMED 1988-10-14 12:00:00 TS 12.5000 113.000 main 380 347 __O___________ -1 12.5000 113.000 1 23 1004 5 252
1988288N14115 1988 94 WP MM NOT_NAMED 1988-10-14 15:00:00 TS 12.5400 112.688 main 347 304 __P___________ -1 12.5400 112.688 1 23 1004 7 286
1988288N14115 1988 94 WP MM NOT_NAMED 1988-10-14 18:00:00 TS 12.7000 112.300 main 304 260 __O___________ -1 12.7000 112.300 1 23 1004 8 290
1988288N14115 1988 94 WP MM NOT_NAMED 1988-10-14 21:00:00 TS 12.8276 111.885 main 260 217 __P___________ -1 12.8276 111.885 1 26 1003 8 291
1988288N14115 1988 94 WP MM NOT_NAMED 1988-10-15 00:00:00 TS 13.0000 111.500 main 217 196 __O___________ -1 13.0000 111.500 1 29 1002 7 304
1988288N14115 1988 94 WP MM NOT_NAMED 1988-10-15 03:00:00 TS 13.2348 111.265 main 197 175 __P___________ -1 13.2348 111.265 1 29 1002 7 316
1988288N14115 1988 94 WP MM NOT_NAMED 1988-10-15 06:00:00 TS 13.5000 111.000 main 175 140 __O___________ -1 13.5000 111.000 1 29 1002 9 307
1988288N14115 1988 94 WP MM NOT_NAMED 1988-10-15 09:00:00 TS 13.7651 110.538 main 129 76 __P___________ -1 13.7651 110.538 1 26 1002 11 297
1988288N14115 1988 94 WP MM NOT_NAMED 1988-10-15 12:00:00 TS 14.0000 110.000 main 76 34 __O___________ -1 14.0000 110.000 1 23 1003 11 292
1988288N14115 1988 94 WP MM NOT_NAMED 1988-10-15 15:00:00 TS 14.1724 109.500 main 34 0 __P___________ -1 14.1724 109.500 1 23 1003 10 287
1988288N14115 1988 94 WP MM NOT_NAMED 1988-10-15 18:00:00 TS 14.3000 109.000 main 0 0 __O___________ -1 14.3000 109.000 1 23 1003 10 284
1988288N14115 1988 94 WP MM NOT_NAMED 1988-10-15 21:00:00 TS 14.4071 108.537 main 0 0 __P___________ -1 14.4071 108.537 1 23 1003 10 282
1988288N14115 1988 94 WP MM NOT_NAMED 1988-10-16 00:00:00 TS 14.5000 108.000 main 0 0 __O___________ -1 14.5000 108.000 1 23 1003 12 279
1988288N14115 1988 94 WP MM NOT_NAMED 1988-10-16 03:00:00 TS 14.5983 107.300 main 0 0 __P___________ -1 14.5983 107.300 1 23 1003 15 278
1988288N14115 1988 94 WP MM NOT_NAMED 1988-10-16 06:00:00 TS 14.7000 106.500 main 0 __O___________ -1 14.7000 106.500 1 23 1003 16 277

デジタル台風データ・検索

IBTrACS Databaseについて

本データベースは、米国NOAAが公開する1842年以降の世界の熱帯低気圧のベストトラックデータアーカイブInternational Best Track Archive for Climate Stewardship (IBTrACS)を、ウェブで閲覧しやすい形式に変換したものです。

最終更新日:2021-10-08